Terminal Aerodrome Forecast
Issued by NWS Greer, SC

Home | Current Version | Previous Version | Text Only | Print | Product List | Glossary On
Versions: 1 2 3 4 5 6 7 8 9 10 11 12 13 14 15 16 17 18 19
000
FTUS42 KGSP 012335
TAFGSP
TAF
KGSP 012335Z 0200/0224 22004KT P6SM SCT060
     FM020200 00000KT P6SM FEW060
     FM021600 22004KT P6SM SCT060
     FM022100 23004KT P6SM BKN060=

USA.gov is the U.S. government's official web portal to all federal, state and local government web resources and services.